createdAt,value
2022-11-02T00:01:44.410Z,99906.63
2022-11-02T00:04:14.135Z,99905.53
2022-11-02T00:06:42.086Z,99905.09
2022-11-02T00:09:09.669Z,99904.78
2022-11-02T00:11:37.819Z,99900.84
2022-11-02T00:14:06.219Z,99901.56
2022-11-02T00:16:33.919Z,99900.25
2022-11-02T00:19:01.547Z,99892.94
2022-11-02T00:21:29.149Z,99905.22
2022-11-02T00:23:56.739Z,99888.97
2022-11-02T00:26:24.733Z,99894.19
2022-11-02T00:28:53.875Z,99877.16
2022-11-02T00:31:21.581Z,99879.69
2022-11-02T00:33:49.182Z,99868.69
2022-11-02T00:36:17.614Z,99885.16
2022-11-02T00:38:45.588Z,99893.75
2022-11-02T00:41:15.155Z,99881.19
2022-11-02T00:43:42.707Z,99877.56
2022-11-02T00:46:10.319Z,99882.75
2022-11-02T00:48:37.962Z,99891.78
2022-11-02T00:51:05.907Z,99866.13
2022-11-02T00:53:34.411Z,99886.44
2022-11-02T00:56:02.049Z,99891.41
2022-11-02T00:58:29.955Z,99896.75
2022-11-02T01:00:57.899Z,99888.59
2022-11-02T01:03:25.950Z,99889.72
2022-11-02T01:05:53.541Z,99886.09
2022-11-02T01:08:21.136Z,99893.25
2022-11-02T01:10:48.737Z,99881.56
2022-11-02T01:13:16.301Z,99890.16
2022-11-02T01:15:44.811Z,99877.63
2022-11-02T01:18:13.345Z,99877.47
2022-11-02T01:20:41.371Z,99864.94
2022-11-02T01:23:08.953Z,99874.66
2022-11-02T01:25:36.591Z,99878.88
2022-11-02T01:28:05.166Z,99874.22
2022-11-02T01:30:35.172Z,99862.69
2022-11-02T01:33:02.814Z,99880.44
2022-11-02T01:35:30.401Z,99883.13
2022-11-02T01:37:57.995Z,99893.66
2022-11-02T01:40:26.565Z,99872.25
2022-11-02T01:42:54.222Z,99883.13
2022-11-02T01:45:21.823Z,99885.63
2022-11-02T01:47:49.452Z,99888.16
2022-11-02T01:50:17.021Z,99880.28
2022-11-02T01:52:44.991Z,99883.13
2022-11-02T01:55:13.348Z,99879.75
2022-11-02T01:57:40.911Z,99881.88
2022-11-02T02:00:08.492Z,99873.28
2022-11-02T02:02:36.754Z,99872.72
2022-11-02T02:05:04.876Z,99871.28
2022-11-02T02:07:32.448Z,99860.91
2022-11-02T02:10:00.551Z,99878.88
2022-11-02T02:12:28.139Z,99880.88
2022-11-02T02:14:55.719Z,99869.91
2022-11-02T02:17:23.671Z,99874.97
2022-11-02T02:19:52.438Z,99877.06
2022-11-02T02:22:20.742Z,99871.16
2022-11-02T02:24:48.655Z,99876.91
2022-11-02T02:27:16.247Z,99867.63
2022-11-02T02:29:44.221Z,99869.88
2022-11-02T02:32:11.825Z,99871.41
2022-11-02T02:34:39.364Z,99855.34
2022-11-02T02:37:08.163Z,99857.47
2022-11-02T02:39:35.775Z,99865.94
2022-11-02T02:42:03.695Z,99853.50
2022-11-02T02:44:32.027Z,99848.34
2022-11-02T02:47:00.178Z,99864.53
2022-11-02T02:49:27.747Z,99868.31
2022-11-02T02:51:55.313Z,99858.06
2022-11-02T02:54:23.278Z,99869.88
2022-11-02T02:56:52.996Z,99856.09
2022-11-02T02:59:20.550Z,99851.88
2022-11-02T03:01:48.236Z,99862.84
2022-11-02T03:04:15.864Z,99871.03
2022-11-02T03:06:43.793Z,99863.13
2022-11-02T03:09:12.557Z,99864.25
2022-11-02T03:11:40.111Z,99875.81
2022-11-02T03:14:07.690Z,99880.47
2022-11-02T03:16:35.242Z,99878.06
2022-11-02T03:19:03.160Z,99877.22
2022-11-02T03:21:30.728Z,99881.59
2022-11-02T03:23:58.294Z,99859.22
2022-11-02T03:26:25.813Z,99877.81
2022-11-02T03:28:53.698Z,99885.94
2022-11-02T03:31:21.710Z,99882.59
2022-11-02T03:33:49.238Z,99873.00
2022-11-02T03:36:16.766Z,99870.34
2022-11-02T03:38:44.390Z,99880.31
2022-11-02T03:41:12.118Z,99891.41
2022-11-02T03:43:40.068Z,99898.44
2022-11-02T03:46:08.123Z,99894.94
2022-11-02T03:48:35.649Z,99892.41
2022-11-02T03:51:03.471Z,99905.09
2022-11-02T03:53:31.067Z,99906.78
2022-11-02T03:55:59.024Z,99905.22
2022-11-02T03:58:27.863Z,99907.31
2022-11-02T04:00:55.426Z,99914.66
2022-11-02T04:03:22.988Z,99918.44
2022-11-02T04:05:50.497Z,99921.09
2022-11-02T04:08:24.966Z,99932.91
2022-11-02T04:11:09.746Z,99929.41
2022-11-02T04:13:55.106Z,99934.06
2022-11-02T04:16:27.785Z,99934.31
2022-11-02T04:19:13.005Z,99931.78
2022-11-02T04:21:40.555Z,99933.75
2022-11-02T04:24:25.358Z,99935.03
2022-11-02T04:26:52.898Z,99934.25
2022-11-02T04:29:20.846Z,99935.41
2022-11-02T04:31:48.896Z,99937.34
2022-11-02T04:34:15.409Z,99945.78
2022-11-02T04:36:42.962Z,99949.56
2022-11-02T04:39:09.538Z,99947.88
2022-11-02T04:41:45.712Z,99953.38
2022-11-02T04:44:13.363Z,99949.72
2022-11-02T04:46:40.899Z,99949.84
2022-11-02T04:49:08.469Z,99969.53
2022-11-02T04:51:36.077Z,99962.34
2022-11-02T04:54:09.897Z,99958.72
2022-11-02T04:56:37.468Z,99964.91
2022-11-02T04:59:04.996Z,99968.25
2022-11-02T05:01:32.765Z,99974.47
2022-11-02T05:04:00.431Z,99969.00
2022-11-02T05:06:30.623Z,99969.94
2022-11-02T05:08:58.182Z,99962.09
2022-11-02T05:11:25.812Z,99970.34
2022-11-02T05:13:53.375Z,99963.63
2022-11-02T05:16:21.275Z,99967.41
2022-11-02T05:18:51.382Z,99970.34
2022-11-02T05:21:18.951Z,99975.94
2022-11-02T05:23:46.569Z,99973.56
2022-11-02T05:26:14.593Z,99981.56
2022-11-02T05:28:42.233Z,99983.84
2022-11-02T05:31:11.696Z,99978.38
2022-11-02T05:33:39.300Z,99986.22
2022-11-02T05:36:06.890Z,99993.25
2022-11-02T05:38:34.544Z,99997.50
2022-11-02T05:41:02.195Z,100004.53
2022-11-02T05:43:29.818Z,99991.03
2022-11-02T05:45:57.435Z,100000.16
2022-11-02T05:48:25.035Z,99999.34
2022-11-02T05:50:52.610Z,100003.00
2022-11-02T05:53:20.150Z,100007.59
2022-11-02T05:55:48.637Z,100012.13
2022-11-02T05:58:16.535Z,100018.28
2022-11-02T06:00:44.217Z,100015.94
2022-11-02T06:03:11.943Z,100011.88
2022-11-02T06:05:39.539Z,100022.88
2022-11-02T06:08:08.857Z,100022.63
2022-11-02T06:10:36.455Z,100019.66
2022-11-02T06:13:04.370Z,100025.00
2022-11-02T06:15:32.500Z,100041.03
2022-11-02T06:18:00.191Z,100030.47
2022-11-02T06:20:31.736Z,100036.81
2022-11-02T06:22:59.311Z,100050.19
2022-11-02T06:25:27.710Z,100047.38
2022-11-02T06:27:56.675Z,100057.97
2022-11-02T06:30:24.244Z,100063.03
2022-11-02T06:32:52.203Z,100068.97
2022-11-02T06:35:19.774Z,100050.97
2022-11-02T06:37:47.349Z,100069.44
2022-11-02T06:40:15.008Z,100087.84
2022-11-02T06:42:45.175Z,100086.63
2022-11-02T06:45:24.329Z,100086.47
2022-11-02T06:47:51.953Z,100095.34
2022-11-02T06:50:19.525Z,100090.00
2022-11-02T06:52:47.099Z,100091.13
2022-11-02T06:55:14.700Z,100100.94
2022-11-02T06:57:42.791Z,100107.28
2022-11-02T07:00:11.233Z,100106.44
2022-11-02T07:02:39.174Z,100119.66
2022-11-02T07:05:06.794Z,100126.56
2022-11-02T07:07:34.393Z,100136.03
2022-11-02T07:10:03.617Z,100145.75
2022-11-02T07:12:31.254Z,100153.38
2022-11-02T07:14:58.939Z,100150.03
2022-11-02T07:17:31.895Z,100152.31
2022-11-02T07:19:59.880Z,100166.13
2022-11-02T07:22:28.614Z,100167.56
2022-11-02T07:24:56.585Z,100168.53
2022-11-02T07:27:24.219Z,100165.00
2022-11-02T07:29:51.804Z,100169.25
2022-11-02T07:32:19.500Z,100185.88
2022-11-02T07:34:47.464Z,100191.69
2022-11-02T07:37:15.118Z,100184.22
2022-11-02T07:39:42.811Z,100178.72
2022-11-02T07:42:10.582Z,100183.25
2022-11-02T07:44:39.027Z,100192.09
2022-11-02T07:47:09.949Z,100184.06
2022-11-02T07:49:37.629Z,100194.66
2022-11-02T07:52:05.372Z,100200.13
2022-11-02T07:54:33.043Z,100205.63
2022-11-02T07:57:01.003Z,100210.84
2022-11-02T07:59:29.216Z,100224.78
2022-11-02T08:01:56.970Z,100221.72
2022-11-02T08:04:24.687Z,100225.69
2022-11-02T08:06:52.436Z,100243.28
2022-11-02T08:09:20.176Z,100235.13
2022-11-02T08:11:49.163Z,100235.84
2022-11-02T08:14:16.779Z,100244.16
2022-11-02T08:16:44.607Z,100241.03
2022-11-02T08:19:12.324Z,100253.25
2022-11-02T08:21:40.016Z,100248.44
2022-11-02T08:24:08.674Z,100255.16
2022-11-02T08:26:38.675Z,100274.03
2022-11-02T08:29:09.068Z,100266.44
2022-11-02T08:31:36.949Z,100257.91
2022-11-02T08:34:04.841Z,100251.03
2022-11-02T08:36:34.355Z,100272.75
2022-11-02T08:39:02.112Z,100259.94
2022-11-02T08:41:29.931Z,100255.03
2022-11-02T08:43:59.252Z,100273.38
2022-11-02T08:46:27.003Z,100277.06
2022-11-02T08:48:55.114Z,100269.91
2022-11-02T08:51:23.145Z,100274.72
2022-11-02T08:53:52.019Z,100266.69
2022-11-02T08:56:19.870Z,100287.25
2022-11-02T08:58:47.549Z,100286.69
2022-11-02T09:01:15.672Z,100290.63
2022-11-02T09:03:43.417Z,100278.78
2022-11-02T09:06:11.193Z,100282.97
2022-11-02T09:08:38.821Z,100286.63
2022-11-02T09:11:06.709Z,100300.44
2022-11-02T09:13:37.625Z,100304.16
2022-11-02T09:16:05.393Z,100306.88
2022-11-02T09:18:33.105Z,100310.47
2022-11-02T09:21:00.726Z,100314.16
2022-11-02T09:23:28.436Z,100324.47
2022-11-02T09:25:56.668Z,100315.88
2022-11-02T09:28:24.433Z,100307.72
2022-11-02T09:30:52.303Z,100315.91
2022-11-02T09:33:20.074Z,100321.44
2022-11-02T09:35:48.190Z,100324.56
2022-11-02T09:38:19.105Z,100330.91
2022-11-02T09:40:46.841Z,100328.06
2022-11-02T09:43:14.664Z,100323.69
2022-11-02T09:45:42.393Z,100330.63
2022-11-02T09:48:22.061Z,100346.44
2022-11-02T09:50:56.459Z,100335.88
2022-11-02T09:53:27.093Z,100337.69
2022-11-02T09:55:55.206Z,100328.91
2022-11-02T09:58:22.994Z,100336.28
2022-11-02T10:00:50.764Z,100329.06
2022-11-02T10:03:18.994Z,100333.88
2022-11-02T10:05:46.831Z,100333.50
2022-11-02T10:08:14.631Z,100321.78
2022-11-02T10:10:42.413Z,100318.16
2022-11-02T10:13:10.299Z,100324.53
2022-11-02T10:15:38.918Z,100326.34
2022-11-02T10:18:07.014Z,100330.25
2022-11-02T10:20:34.734Z,100340.69
2022-11-02T10:23:03.923Z,100332.41
2022-11-02T10:25:31.823Z,100322.09
2022-11-02T10:28:01.826Z,100327.88
2022-11-02T10:30:29.649Z,100335.63
2022-11-02T10:32:57.409Z,100346.19
2022-11-02T10:35:40.988Z,100333.91
2022-11-02T10:38:15.435Z,100341.22
2022-11-02T10:40:43.562Z,100347.25
2022-11-02T10:43:11.336Z,100338.38
2022-11-02T10:45:39.265Z,100339.94
2022-11-02T10:48:07.326Z,100344.06
2022-11-02T10:50:35.654Z,100345.88
2022-11-02T10:53:27.390Z,100345.34
2022-11-02T10:55:51.429Z,100335.97
2022-11-02T10:58:19.436Z,100348.06
2022-11-02T11:00:49.562Z,100356.13
2022-11-02T11:03:17.398Z,100363.34
2022-11-02T11:05:45.774Z,100358.75
2022-11-02T11:08:13.698Z,100350.97
2022-11-02T11:10:44.273Z,100355.88
2022-11-02T11:15:59.910Z,100363.38
2022-11-02T11:21:16.018Z,100368.28
2022-11-02T11:23:45.867Z,100356.34
2022-11-02T11:26:13.559Z,100366.09
2022-11-02T11:28:41.831Z,100373.06
2022-11-02T11:31:09.668Z,100366.38
2022-11-02T11:33:37.444Z,100372.84
2022-11-02T11:36:06.728Z,100365.94
2022-11-02T11:38:34.578Z,100367.56
2022-11-02T11:41:02.343Z,100365.88
2022-11-02T11:43:30.575Z,100366.66
2022-11-02T11:46:04.831Z,100370.41
2022-11-02T11:48:33.652Z,100382.38
2022-11-02T11:51:01.356Z,100374.22
2022-11-02T11:53:29.378Z,100377.34
2022-11-02T11:55:58.387Z,100366.59
2022-11-02T11:58:26.129Z,100368.97
2022-11-02T12:00:58.281Z,100371.59
2022-11-02T12:03:26.276Z,100372.50
2022-11-02T12:05:54.132Z,100372.13
2022-11-02T12:08:21.882Z,100369.25
2022-11-02T12:10:49.538Z,100372.59
2022-11-02T12:13:17.829Z,100358.19
2022-11-02T12:15:45.642Z,100366.56
2022-11-02T12:18:13.512Z,100365.16
2022-11-02T12:20:41.428Z,100367.19
2022-11-02T12:23:09.443Z,100356.00
2022-11-02T12:25:37.766Z,100368.91
2022-11-02T12:28:05.621Z,100381.59
2022-11-02T12:30:33.363Z,100361.97
2022-11-02T12:33:01.243Z,100372.47
2022-11-02T12:35:30.287Z,100364.44
2022-11-02T12:38:00.144Z,100358.25
2022-11-02T12:40:27.970Z,100358.38
2022-11-02T12:42:56.340Z,100352.16
2022-11-02T12:45:24.560Z,100356.66
2022-11-02T12:47:52.384Z,100346.66
2022-11-02T12:50:22.123Z,100348.63
2022-11-02T12:52:49.861Z,100344.53
2022-11-02T12:55:17.649Z,100354.94
2022-11-02T12:57:45.521Z,100346.66
2022-11-02T13:00:13.358Z,100347.34
2022-11-02T13:02:42.228Z,100361.00
2022-11-02T13:05:09.945Z,100355.78
2022-11-02T13:07:37.611Z,100359.69
2022-11-02T13:10:05.530Z,100356.94
2022-11-02T13:12:33.336Z,100364.75
2022-11-02T13:15:01.580Z,100359.28
2022-11-02T13:17:29.433Z,100354.44
2022-11-02T13:19:57.867Z,100364.22
2022-11-02T13:22:25.747Z,100367.91
2022-11-02T13:24:53.618Z,100362.84
2022-11-02T13:27:35.884Z,100367.88
2022-11-02T13:30:04.859Z,100362.00
2022-11-02T13:32:34.055Z,100348.75
2022-11-02T13:35:02.136Z,100348.00
2022-11-02T13:37:31.394Z,100353.84
2022-11-02T13:39:59.263Z,100347.66
2022-11-02T13:42:27.044Z,100344.41
2022-11-02T13:44:54.949Z,100347.28
2022-11-02T13:47:23.155Z,100344.28
2022-11-02T13:49:52.988Z,100348.97
2022-11-02T13:52:20.835Z,100344.47
2022-11-02T13:54:48.746Z,100345.78
2022-11-02T13:57:16.540Z,100339.91
2022-11-02T13:59:44.325Z,100335.56
2022-11-02T14:02:13.873Z,100336.59
2022-11-02T14:04:41.884Z,100330.59
2022-11-02T14:07:09.807Z,100337.75
2022-11-02T14:09:37.760Z,100341.91
2022-11-02T14:12:05.536Z,100338.94
2022-11-02T14:14:33.592Z,100338.63
2022-11-02T14:19:34.179Z,100338.88
2022-11-02T14:22:01.947Z,100344.28
2022-11-02T14:24:29.879Z,100343.00
2022-11-02T14:26:59.842Z,100342.88
2022-11-02T14:29:27.781Z,100344.47
2022-11-02T14:31:55.590Z,100337.19
2022-11-02T14:34:23.359Z,100333.97
2022-11-02T14:36:51.167Z,100336.63
2022-11-02T14:39:20.579Z,100333.78
2022-11-02T14:41:48.334Z,100336.16
2022-11-02T14:44:16.040Z,100330.88
2022-11-02T14:46:43.979Z,100335.25
2022-11-02T14:49:11.747Z,100329.25
2022-11-02T14:51:40.576Z,100338.47
2022-11-02T14:54:09.225Z,100341.69
2022-11-02T14:56:37.147Z,100340.50
2022-11-02T14:59:05.089Z,100333.78
2022-11-02T15:01:32.951Z,100332.31
2022-11-02T15:04:01.271Z,100333.06
2022-11-02T15:06:29.413Z,100323.88
2022-11-02T15:08:57.326Z,100324.16
2022-11-02T15:11:25.171Z,100326.28
2022-11-02T15:13:53.334Z,100330.78
2022-11-02T15:16:23.511Z,100322.72
2022-11-02T15:18:51.385Z,100321.03
2022-11-02T15:21:19.172Z,100326.53
2022-11-02T15:23:47.119Z,100317.59
2022-11-02T15:26:15.138Z,100319.44
2022-11-02T15:28:43.370Z,100318.69
2022-11-02T15:31:11.320Z,100309.91
2022-11-02T15:33:39.124Z,100310.75
2022-11-02T15:36:07.262Z,100314.06
2022-11-02T15:38:39.735Z,100303.31
2022-11-02T15:41:10.595Z,100306.06
2022-11-02T15:43:38.700Z,100314.91
2022-11-02T15:46:09.452Z,100306.81
2022-11-02T15:48:37.528Z,100300.59
2022-11-02T15:51:05.466Z,100306.16
2022-11-02T15:53:35.050Z,100307.06
2022-11-02T15:56:02.921Z,100302.03
2022-11-02T15:58:31.179Z,100297.72
2022-11-02T16:00:59.031Z,100301.28
2022-11-02T16:03:27.024Z,100291.59
2022-11-02T16:05:58.328Z,100305.00
2022-11-02T16:08:28.284Z,100300.69
2022-11-02T16:10:56.142Z,100299.88
2022-11-02T16:13:24.947Z,100298.09
2022-11-02T16:15:54.787Z,100298.94
2022-11-02T16:18:23.355Z,100295.34
2022-11-02T16:20:51.261Z,100296.91
2022-11-02T16:23:19.073Z,100301.31
2022-11-02T16:25:46.884Z,100309.09
2022-11-02T16:28:14.838Z,100306.91
2022-11-02T16:30:46.671Z,100312.81
2022-11-02T16:33:14.517Z,100323.84
2022-11-02T16:35:42.521Z,100317.31
2022-11-02T16:38:10.405Z,100325.56
2022-11-02T16:40:38.242Z,100323.97
2022-11-02T16:43:07.860Z,100321.41
2022-11-02T16:45:40.287Z,100319.84
2022-11-02T16:48:11.420Z,100311.25
2022-11-02T16:50:39.306Z,100318.63
2022-11-02T16:53:08.392Z,100309.50
2022-11-02T16:55:36.271Z,100316.25
2022-11-02T16:58:04.312Z,100311.53
2022-11-02T17:00:32.382Z,100317.19
2022-11-02T17:03:00.259Z,100323.75
2022-11-02T17:05:28.771Z,100324.09
2022-11-02T17:07:56.678Z,100314.63
2022-11-02T17:10:24.710Z,100315.59
2022-11-02T17:12:52.580Z,100316.03
2022-11-02T17:15:20.386Z,100307.69
2022-11-02T17:17:49.316Z,100312.38
2022-11-02T17:20:17.267Z,100312.50
2022-11-02T17:22:45.439Z,100311.53
2022-11-02T17:25:13.335Z,100325.72
2022-11-02T17:27:42.699Z,100317.38
2022-11-02T17:30:12.448Z,100321.53
2022-11-02T17:32:40.383Z,100310.72
2022-11-02T17:35:08.830Z,100311.47
2022-11-02T17:37:36.696Z,100312.19
2022-11-02T17:40:04.610Z,100307.50
2022-11-02T17:42:51.125Z,100314.50
2022-11-02T17:45:19.994Z,100322.25
2022-11-02T17:47:47.801Z,100319.38
2022-11-02T17:50:15.607Z,100312.22
2022-11-02T17:52:43.447Z,100307.03
2022-11-02T17:55:12.143Z,100306.16
2022-11-02T17:57:39.904Z,100311.50
2022-11-02T18:00:07.890Z,100315.13
2022-11-02T18:02:35.764Z,100304.72
2022-11-02T18:05:03.945Z,100310.50
2022-11-02T18:07:32.478Z,100317.88
2022-11-02T18:10:02.202Z,100308.19
2022-11-02T18:12:29.981Z,100314.00
2022-11-02T18:14:57.936Z,100305.03
2022-11-02T18:17:27.880Z,100296.81
2022-11-02T18:19:59.639Z,100299.97
2022-11-02T18:22:27.644Z,100289.69
2022-11-02T18:24:55.434Z,100284.97
2022-11-02T18:27:26.359Z,100287.41
2022-11-02T18:29:56.475Z,100281.00
2022-11-02T18:32:24.809Z,100282.47
2022-11-02T18:34:54.107Z,100277.75
2022-11-02T18:37:23.143Z,100283.53
2022-11-02T18:39:51.025Z,100278.00
2022-11-02T18:42:18.808Z,100273.38
2022-11-02T18:44:46.519Z,100267.09
2022-11-02T18:47:15.334Z,100266.13
2022-11-02T18:49:43.416Z,100259.00
2022-11-02T18:52:11.204Z,100256.44
2022-11-02T18:54:39.255Z,100245.00
2022-11-02T18:57:07.431Z,100239.78
2022-11-02T18:59:36.263Z,100240.75
2022-11-02T19:02:05.039Z,100244.50
2022-11-02T19:04:32.899Z,100249.25
2022-11-02T19:07:18.251Z,100245.00
2022-11-02T19:09:47.174Z,100243.19
2022-11-02T19:12:14.952Z,100246.69
2022-11-02T19:14:42.834Z,100240.41
2022-11-02T19:17:10.671Z,100234.09
2022-11-02T19:19:40.203Z,100217.84
2022-11-02T19:22:08.740Z,100216.75
2022-11-02T19:24:36.542Z,100214.81
2022-11-02T19:27:04.362Z,100214.63
2022-11-02T19:29:32.253Z,100212.78
2022-11-02T19:32:00.711Z,100213.50
2022-11-02T19:34:30.706Z,100215.94
2022-11-02T19:36:58.983Z,100214.00
2022-11-02T19:39:26.825Z,100216.28
2022-11-02T19:41:54.681Z,100216.28
2022-11-02T19:44:23.026Z,100210.13
2022-11-02T19:46:51.324Z,100216.41
2022-11-02T19:49:19.118Z,100211.06
2022-11-02T19:51:47.117Z,100209.53
2022-11-02T19:54:15.863Z,100213.28
2022-11-02T19:56:43.739Z,100216.06
2022-11-02T19:59:13.443Z,100212.66
2022-11-02T20:01:42.296Z,100210.22
2022-11-02T20:04:10.161Z,100199.66
2022-11-02T20:06:38.209Z,100200.75
2022-11-02T20:09:06.543Z,100192.88
2022-11-02T20:11:34.388Z,100187.53
2022-11-02T20:14:02.611Z,100188.41
2022-11-02T20:16:30.735Z,100179.53
2022-11-02T20:18:59.215Z,100182.19
2022-11-02T20:21:32.365Z,100175.78
2022-11-02T20:24:05.131Z,100174.69
2022-11-02T20:26:33.027Z,100164.66
2022-11-02T20:29:00.817Z,100169.88
2022-11-02T20:31:28.993Z,100166.25
2022-11-02T20:33:56.842Z,100155.31
2022-11-02T20:36:24.746Z,100152.63
2022-11-02T20:38:52.461Z,100147.19
2022-11-02T20:41:20.739Z,100151.78
2022-11-02T20:43:48.908Z,100151.94
2022-11-02T20:46:36.036Z,100145.63
2022-11-02T20:49:20.017Z,100129.59
2022-11-02T20:51:49.345Z,100133.00
2022-11-02T20:54:19.039Z,100127.66
2022-11-02T20:56:47.179Z,100125.97
2022-11-02T20:59:17.070Z,100123.28
2022-11-02T21:01:45.128Z,100123.28
2022-11-02T21:04:19.817Z,100133.09
2022-11-02T21:06:48.886Z,100119.66
2022-11-02T21:09:17.013Z,100131.03
2022-11-02T21:12:02.229Z,100113.94
2022-11-02T21:14:30.069Z,100134.19
2022-11-02T21:16:58.071Z,100123.53
2022-11-02T21:19:27.891Z,100126.91
2022-11-02T21:21:59.671Z,100128.47
2022-11-02T21:24:28.352Z,100121.06
2022-11-02T21:26:56.218Z,100123.34
2022-11-02T21:29:24.708Z,100114.38
2022-11-02T21:31:53.723Z,100122.16
2022-11-02T21:34:21.601Z,100125.66
2022-11-02T21:36:49.673Z,100119.59
2022-11-02T21:39:17.448Z,100116.09
2022-11-02T21:41:45.274Z,100110.75
2022-11-02T21:44:13.863Z,100112.56
2022-11-02T21:46:41.669Z,100113.53
2022-11-02T21:49:11.137Z,100105.66
2022-11-02T21:51:38.865Z,100113.53
2022-11-02T21:54:07.070Z,100103.00
2022-11-02T21:56:36.219Z,100095.84
2022-11-02T21:59:05.417Z,100099.50
2022-11-02T22:01:49.948Z,100096.06
2022-11-02T22:04:20.020Z,100097.06
2022-11-02T22:06:47.866Z,100087.09
2022-11-02T22:09:15.681Z,100087.09
2022-11-02T22:11:45.084Z,100091.34
2022-11-02T22:14:11.870Z,100087.84
2022-11-02T22:16:39.922Z,100084.44
2022-11-02T22:19:09.735Z,100089.75
2022-11-02T22:21:37.433Z,100086.28
2022-11-02T22:24:05.263Z,100073.53
2022-11-02T22:26:33.112Z,100068.91
2022-11-02T22:29:01.987Z,100075.09
2022-11-02T22:31:31.024Z,100070.75
2022-11-02T22:33:58.723Z,100071.69
2022-11-02T22:36:26.388Z,100074.34
2022-11-02T22:38:53.997Z,100065.50
2022-11-02T22:41:22.143Z,100056.81
2022-11-02T22:43:50.509Z,100053.16
2022-11-02T22:46:18.244Z,100049.50
2022-11-02T22:48:45.914Z,100043.06
2022-11-02T22:51:14.187Z,100041.22
2022-11-02T22:53:42.200Z,100042.09
2022-11-02T22:56:12.031Z,100031.31
2022-11-02T22:58:39.789Z,100022.03
2022-11-02T23:01:07.462Z,100022.91
2022-11-02T23:03:35.422Z,100016.44
2022-11-02T23:06:03.382Z,100021.78
2022-11-02T23:08:31.164Z,100013.66
2022-11-02T23:11:16.362Z,100008.31
2022-11-02T23:13:44.688Z,100010.00
2022-11-02T23:16:24.663Z,100001.88
2022-11-02T23:19:09.593Z,99992.06
2022-11-02T23:21:39.305Z,99991.19
2022-11-02T23:24:24.481Z,99986.72
2022-11-02T23:26:52.464Z,99984.06
2022-11-02T23:29:37.566Z,99979.66
2022-11-02T23:32:22.440Z,99974.47
2022-11-02T23:35:07.271Z,99968.97
2022-11-02T23:37:35.388Z,99975.19
2022-11-02T23:40:03.119Z,99962.69
2022-11-02T23:42:30.715Z,99954.53
2022-11-02T23:44:58.720Z,99959.88
2022-11-02T23:47:55.055Z,99950.75
2022-11-02T23:50:36.431Z,99941.06
2022-11-02T23:53:21.601Z,99949.78
2022-11-02T23:56:06.414Z,99943.47
2022-11-02T23:58:34.225Z,99940.78
